Dickinson's Hourly Summary for Thursday, July 5, 2018
Hour Temp
(f)
RH
(%)
Solar Rad.
(MJ/m2)
Rainfall
(in)
Wind
(mph)
7/5/2018 12:00 AM 74 92 0 0 0
7/5/2018 1:00 AM 74 96 0 0 0
7/5/2018 2:00 AM 74 96 0 0 0
7/5/2018 3:00 AM 76 92 0 0 0.1
7/5/2018 4:00 AM 76 93 0 0 0
7/5/2018 5:00 AM 76 93 0 0 0.11
7/5/2018 6:00 AM 74 94 0 0 0
7/5/2018 7:00 AM 74 97 0.03 0 0
7/5/2018 8:00 AM 77 88 0.41 0 0.3
7/5/2018 9:00 AM 81 83 0.82 0 1.74
7/5/2018 10:00 AM 81 81 0.78 0 4.53
7/5/2018 11:00 AM 83 74 2.17 0 4.89
7/5/2018 12:00 PM 85 66 2.62 0 3.91
7/5/2018 1:00 PM 84 69 1 0 3.03
7/5/2018 2:00 PM 84 66 2.57 0 3.17
7/5/2018 3:00 PM 81 69 0.74 0 2.72
7/5/2018 4:00 PM 84 62 2.25 0 1.8
7/5/2018 5:00 PM 87 55 2.45 0 1.25
7/5/2018 6:00 PM 87 58 1.6 0 2.19
7/5/2018 7:00 PM 86 61 0.53 0 1.07
7/5/2018 8:00 PM 83 69 0.06 0 0.18
7/5/2018 9:00 PM 82 72 0.01 0.01 0
7/5/2018 10:00 PM 80 84 0 0 1.22
7/5/2018 11:00 PM 79 80 0 0 2.69
Data Summary 80 78 18.04 0.01 1.45